Time;durP1;ratioP1;P1;durP2;ratioP2;P2;SDS_P1;SDS_P2;PMS_P1;PMS_P2;Temp;Humidity;BMP_temperature;BMP_pressure;BME280_temperature;BME280_humidity;BME280_pressure;Samples;Min_cycle;Max_cycle;Signal;HPM_P1;HPM_P2
2023/04/28 00:01:16;;;;;;;;;;;;;;;11.01;74.15;96301.44;5075127;28;20453;-75
2023/04/28 00:03:42;;;;;;;;;;;;;;;11.01;72.84;96293.56;5075480;28;19934;-75
2023/04/28 00:06:08;;;;;;;;;;;;;;;10.99;73.26;96295.63;5074810;28;20006;-75
2023/04/28 00:08:33;;;;;;;;;;;;;;;10.96;74.70;96296.88;5057843;28;19974;-75
2023/04/28 00:10:59;;;;;;;;;;;;;;;10.95;75.02;96305.75;5074816;28;20451;-75
2023/04/28 00:13:25;;;;;;;;;;;;;;;10.94;75.46;96305.97;5074815;28;20357;-75
2023/04/28 00:15:51;;;;;;;;;;;;;;;10.91;76.18;96314.28;5075264;28;19952;-75
2023/04/28 00:18:18;;;;;;;;;;;;;;;10.89;75.83;96308.47;5074762;28;19943;-70
2023/04/28 00:20:44;;;;;;;;;;;;;;;10.87;75.90;96300.81;5056775;28;19951;-78
2023/04/28 00:23:10;;;;;;;;;;;;;;;10.86;75.92;96296.59;5074909;28;19937;-77
2023/04/28 00:25:35;;;;;;;;;;;;;;;10.86;75.78;96298.44;5074448;28;19955;-78
2023/04/28 00:28:01;;;;;;;;;;;;;;;10.83;76.51;96291.78;5075357;28;20000;-77
2023/04/28 00:30:28;;;;;;;;;;;;;;;10.82;76.38;96286.78;5056751;28;19935;-77
2023/04/28 00:32:54;;;;;;;;;;;;;;;10.82;77.03;96282.34;5057139;28;19960;-77
2023/04/28 00:35:20;;;;;;;;;;;;;;;10.80;76.60;96273.88;5074464;28;20389;-71
2023/04/28 00:37:46;;;;;;;;;;;;;;;10.79;76.51;96279.34;5074170;28;20408;-73
2023/04/28 00:40:12;;;;;;;;;;;;;;;10.78;76.33;96273.31;5055749;28;19944;-73
2023/04/28 00:42:38;;;;;;;;;;;;;;;10.77;77.19;96269.88;5074254;28;19983;-73
2023/04/28 00:45:07;;;;;;;;;;;;;;;10.77;77.26;96269.06;5074716;28;19995;-73
2023/04/28 00:47:33;;;;;;;;;;;;;;;10.76;76.97;96272.72;5074090;28;19967;-73
2023/04/28 00:50:02;;;;;;;;;;;;;;;10.75;77.31;96269.31;5074153;28;19937;-73
2023/04/28 00:52:28;;;;;;;;;;;;;;;10.74;77.13;96274.78;5074090;28;19943;-73
2023/04/28 00:54:55;;;;;;;;;;;;;;;10.73;77.53;96281.03;5074633;28;19942;-73
2023/04/28 00:57:21;;;;;;;;;;;;;;;10.73;77.66;96283.66;5074965;28;19946;-76
2023/04/28 00:59:47;;;;;;;;;;;;;;;10.73;77.87;96267.91;5074488;28;19940;-76
2023/04/28 01:02:16;;;;;;;;;;;;;;;10.73;77.83;96265.28;5074012;28;20004;-75
2023/04/28 01:04:42;;;;;;;;;;;;;;;10.72;78.55;96259.25;5074475;28;19964;-76
2023/04/28 01:07:08;;;;;;;;;;;;;;;10.72;78.54;96274.19;5073823;28;20020;-76
2023/04/28 01:09:34;;;;;;;;;;;;;;;10.72;78.86;96268.94;5055964;28;19935;-76
2023/04/28 01:12:00;;;;;;;;;;;;;;;10.70;79.09;96263.91;5073849;28;19936;-75
2023/04/28 01:14:26;;;;;;;;;;;;;;;10.70;79.42;96263.91;5073822;28;19943;-76
2023/04/28 01:16:52;;;;;;;;;;;;;;;10.70;79.45;96255.25;5074633;28;19941;-77
2023/04/28 01:19:22;;;;;;;;;;;;;;;10.69;79.10;96259.72;5074035;28;19939;-77
2023/04/28 01:21:48;;;;;;;;;;;;;;;10.69;78.72;96256.28;5074559;28;19947;-76
2023/04/28 01:24:15;;;;;;;;;;;;;;;10.69;79.25;96248.44;5073717;28;19936;-77
2023/04/28 01:26:40;;;;;;;;;;;;;;;10.68;79.45;96250.22;5073880;28;19956;-77
2023/04/28 01:29:06;;;;;;;;;;;;;;;10.69;79.18;96243.97;5074195;28;19939;-77
2023/04/28 01:31:32;;;;;;;;;;;;;;;10.67;78.87;96248.63;5074425;28;19990;-70
2023/04/28 01:33:58;;;;;;;;;;;;;;;10.67;79.68;96243.41;5055716;28;19946;-75
2023/04/28 01:36:27;;;;;;;;;;;;;;;10.66;79.82;96241.78;5073896;28;20057;-75
2023/04/28 01:38:53;;;;;;;;;;;;;;;10.66;79.80;96244.41;5073523;28;19948;-75
2023/04/28 01:41:20;;;;;;;;;;;;;;;10.66;80.11;96243.59;5073518;28;19934;-75
2023/04/28 01:43:45;;;;;;;;;;;;;;;10.65;80.52;96242.81;5073536;28;19941;-75
2023/04/28 01:46:11;;;;;;;;;;;;;;;10.63;80.44;96237.00;5056016;28;19961;-75
2023/04/28 01:48:37;;;;;;;;;;;;;;;10.62;80.40;96240.63;5074255;28;19936;-77
2023/04/28 01:51:03;;;;;;;;;;;;;;;10.61;80.38;96238.25;5055741;28;19942;-75
2023/04/28 01:56:13;;;;;;;;;;;;;;;10.59;80.33;96240.28;5077803;28;19941;-75
2023/04/28 01:58:39;;;;;;;;;;;;;;;10.57;80.26;96230.00;5077944;28;20297;-75
2023/04/28 02:01:05;;;;;;;;;;;;;;;10.57;80.14;96232.63;5060061;28;20032;-75
2023/04/28 02:03:31;;;;;;;;;;;;;;;10.55;80.30;96230.22;5077306;28;19946;-75
2023/04/28 02:05:57;;;;;;;;;;;;;;;10.55;79.86;96224.19;5077139;28;19960;-75
2023/04/28 02:08:23;;;;;;;;;;;;;;;10.54;80.07;96222.59;5077216;28;19944;-75
2023/04/28 02:10:49;;;;;;;;;;;;;;;10.53;80.51;96221.00;5077114;28;19945;-74
2023/04/28 02:13:16;;;;;;;;;;;;;;;10.52;80.72;96220.19;5077753;28;19956;-75
2023/04/28 02:15:42;;;;;;;;;;;;;;;10.53;80.58;96215.75;5077017;28;20320;-75
2023/04/28 02:18:08;;;;;;;;;;;;;;;10.52;80.76;96209.72;5077567;28;19957;-75
2023/04/28 02:20:34;;;;;;;;;;;;;;;10.53;80.68;96206.06;5077539;28;20385;-75
2023/04/28 02:23:00;;;;;;;;;;;;;;;10.54;81.74;96212.09;5077429;28;20048;-75
2023/04/28 02:25:26;;;;;;;;;;;;;;;10.53;81.25;96216.53;5077710;28;19968;-76
2023/04/28 02:27:52;;;;;;;;;;;;;;;10.52;81.92;96224.63;5077109;28;19959;-76
2023/04/28 02:30:18;;;;;;;;;;;;;;;10.52;81.63;96225.44;5059029;28;20348;-73
2023/04/28 02:32:44;;;;;;;;;;;;;;;10.52;81.52;96222.00;5059746;28;20276;-73
2023/04/28 02:35:10;;;;;;;;;;;;;;;10.53;81.28;96219.16;5059686;28;19995;-73
2023/04/28 02:37:36;;;;;;;;;;;;;;;10.52;81.25;96222.81;5076390;28;19972;-73
2023/04/28 02:40:01;;;;;;;;;;;;;;;10.53;81.80;96221.00;5077481;28;19942;-73
2023/04/28 02:42:27;;;;;;;;;;;;;;;10.52;81.76;96222.00;5076589;28;19937;-73
2023/04/28 02:44:53;;;;;;;;;;;;;;;10.53;82.29;96221.78;5076793;28;19944;-75
2023/04/28 02:47:19;;;;;;;;;;;;;;;10.54;82.85;96223.41;5058390;28;19974;-76
2023/04/28 02:49:45;;;;;;;;;;;;;;;10.54;82.93;96228.66;5076331;28;19943;-75
2023/04/28 02:52:11;;;;;;;;;;;;;;;10.54;82.47;96226.03;5076361;28;20344;-76
2023/04/28 02:54:37;;;;;;;;;;;;;;;10.53;82.62;96223.63;5058492;28;19941;-76
2023/04/28 02:57:06;;;;;;;;;;;;;;;10.53;82.77;96234.91;5076783;28;19944;-76
2023/04/28 02:59:32;;;;;;;;;;;;;;;10.52;83.13;96233.31;5076720;28;19941;-76
2023/04/28 03:01:57;;;;;;;;;;;;;;;10.53;84.22;96239.34;5076447;28;19947;-69
2023/04/28 03:04:23;;;;;;;;;;;;;;;10.53;84.38;96234.91;5041601;28;20002;-69
2023/04/28 03:06:50;;;;;;;;;;;;;;;10.50;83.51;96224.88;5058066;28;19995;-75
2023/04/28 03:09:15;;;;;;;;;;;;;;;10.48;83.48;96221.66;5076696;28;20417;-75
2023/04/28 03:11:41;;;;;;;;;;;;;;;10.46;83.51;96215.84;5076040;28;19933;-75
2023/04/28 03:14:07;;;;;;;;;;;;;;;10.45;83.91;96224.72;5076569;28;19942;-75
2023/04/28 03:16:36;;;;;;;;;;;;;;;10.40;84.58;96211.50;5076524;28;19939;-75
2023/04/28 03:19:02;;;;;;;;;;;;;;;10.36;84.43;96216.38;5075909;28;19948;-75
2023/04/28 03:21:28;;;;;;;;;;;;;;;10.32;85.27;96207.34;5076747;28;19935;-75
2023/04/28 03:23:54;;;;;;;;;;;;;;;10.33;85.50;96208.97;5058065;28;19943;-75
2023/04/28 03:26:21;;;;;;;;;;;;;;;10.31;86.79;96218.88;5075987;28;19998;-75
2023/04/28 03:28:46;;;;;;;;;;;;;;;10.28;86.36;96216.66;5058660;28;20391;-74
2023/04/28 03:31:12;;;;;;;;;;;;;;;10.29;85.96;96207.81;5075709;28;19937;-75
2023/04/28 03:33:38;;;;;;;;;;;;;;;10.30;86.00;96204.16;5075601;28;19948;-75
2023/04/28 03:36:04;;;;;;;;;;;;;;;10.30;86.32;96206.78;5054785;28;19975;-75
2023/04/28 03:38:30;;;;;;;;;;;;;;;10.32;86.58;96212.59;5055122;28;19954;-76
2023/04/28 03:40:56;;;;;;;;;;;;;;;10.33;86.56;96200.28;5055055;28;20254;-69
2023/04/28 03:43:22;;;;;;;;;;;;;;;10.36;86.49;96197.22;5055181;28;19950;-74
2023/04/28 03:45:48;;;;;;;;;;;;;;;10.38;87.13;96197.00;5055321;28;19990;-74
2023/04/28 03:48:14;;;;;;;;;;;;;;;10.38;87.83;96200.44;5056212;28;19944;-75
2023/04/28 03:50:41;;;;;;;;;;;;;;;10.38;85.83;96189.94;5055257;28;20410;-75
2023/04/28 03:53:07;;;;;;;;;;;;;;;10.40;85.70;96187.09;5056052;28;20293;-74
2023/04/28 03:55:33;;;;;;;;;;;;;;;10.41;86.34;96186.88;5056069;28;19946;-75
2023/04/28 03:57:58;;;;;;;;;;;;;;;10.44;85.03;96185.63;5055420;28;19994;-75
2023/04/28 04:00:24;;;;;;;;;;;;;;;10.45;85.69;96185.41;5055218;28;19945;-70
2023/04/28 04:02:50;;;;;;;;;;;;;;;10.44;85.23;96186.44;5054688;28;20359;-69
2023/04/28 04:05:16;;;;;;;;;;;;;;;10.42;85.08;96188.47;5054994;28;19940;-70
2023/04/28 04:07:42;;;;;;;;;;;;;;;10.41;86.18;96186.88;5037032;28;20435;-70
2023/04/28 04:10:08;;;;;;;;;;;;;;;10.42;85.86;96182.44;5055451;28;19978;-70
2023/04/28 04:12:34;;;;;;;;;;;;;;;10.41;86.72;96180.81;5053681;28;19940;-70
2023/04/28 04:15:00;;;;;;;;;;;;;;;10.39;87.43;96185.50;5055576;28;19952;-69
2023/04/28 04:17:26;;;;;;;;;;;;;;;10.38;88.27;96181.28;5054838;28;19937;-69
2023/04/28 04:19:51;;;;;;;;;;;;;;;10.36;89.53;96184.91;5054701;28;19996;-76
2023/04/28 04:22:17;;;;;;;;;;;;;;;10.32;89.45;96173.28;5055253;28;19946;-76
2023/04/28 04:24:43;;;;;;;;;;;;;;;10.33;91.30;96174.06;5054569;28;19934;-77
2023/04/28 04:27:09;;;;;;;;;;;;;;;10.33;91.35;96176.69;5055303;28;19961;-77
2023/04/28 04:29:36;;;;;;;;;;;;;;;10.31;92.89;96168.25;5054521;28;19946;-76
2023/04/28 04:32:01;;;;;;;;;;;;;;;10.29;92.86;96162.41;5054448;28;20398;-76
2023/04/28 04:34:28;;;;;;;;;;;;;;;10.28;94.64;96168.69;5054454;28;19948;-70
2023/04/28 04:36:53;;;;;;;;;;;;;;;10.27;92.93;96160.03;5064766;28;19966;-69
2023/04/28 04:39:19;;;;;;;;;;;;;;;10.31;93.34;96160.38;5074322;28;20403;-73
2023/04/28 04:41:45;;;;;;;;;;;;;;;10.31;94.71;96163.81;5039728;28;19940;-73
2023/04/28 04:44:11;;;;;;;;;;;;;;;10.29;92.67;96146.66;5040539;28;19946;-73
2023/04/28 04:46:37;;;;;;;;;;;;;;;10.27;94.54;96157.41;5074106;28;19956;-73
2023/04/28 04:49:03;;;;;;;;;;;;;;;10.27;95.06;96160.03;5074637;28;19998;-73
2023/04/28 04:51:28;;;;;;;;;;;;;;;10.28;95.96;96158.19;5056243;28;19954;-73
2023/04/28 04:53:54;;;;;;;;;;;;;;;10.28;96.05;96148.50;5074664;28;19947;-73
2023/04/28 04:56:20;;;;;;;;;;;;;;;10.27;95.34;96139.06;5074102;28;19939;-73
2023/04/28 04:58:46;;;;;;;;;;;;;;;10.26;96.00;96142.69;5074559;28;19944;-73
2023/04/28 05:01:12;;;;;;;;;;;;;;;10.28;96.51;96150.31;5073983;28;19943;-73
2023/04/28 05:03:38;;;;;;;;;;;;;;;10.27;96.60;96149.53;5074530;28;19963;-73
2023/04/28 05:06:04;;;;;;;;;;;;;;;10.29;96.68;96150.16;5073873;28;19940;-73
2023/04/28 05:08:30;;;;;;;;;;;;;;;10.30;100.00;96153.56;5073910;28;19944;-73
2023/04/28 05:10:56;;;;;;;;;;;;;;;10.28;99.95;96138.00;5074665;28;19944;-76
2023/04/28 05:13:22;;;;;;;;;;;;;;;10.28;99.88;96138.00;5073936;28;20417;-76
2023/04/28 05:15:48;;;;;;;;;;;;;;;10.25;99.07;96143.72;5055712;28;19947;-72
2023/04/28 05:18:14;;;;;;;;;;;;;;;10.27;98.07;96138.25;5073760;28;19940;-73
2023/04/28 05:20:40;;;;;;;;;;;;;;;10.31;96.86;96148.09;5073696;28;19944;-73
2023/04/28 05:23:06;;;;;;;;;;;;;;;10.35;97.84;96151.88;5073790;28;20314;-73
2023/04/28 05:25:33;;;;;;;;;;;;;;;10.38;99.00;96161.09;5074470;28;19962;-74
2023/04/28 05:28:03;;;;;;;;;;;;;;;10.41;97.90;96159.84;5055645;28;19958;-73
2023/04/28 05:30:29;;;;;;;;;;;;;;;10.38;99.56;96149.84;5074540;28;20280;-75
2023/04/28 05:32:55;;;;;;;;;;;;;;;10.36;98.63;96147.44;5073734;28;19943;-76
2023/04/28 05:35:21;;;;;;;;;;;;;;;10.35;99.79;96157.13;5055638;28;19943;-76
2023/04/28 05:37:47;;;;;;;;;;;;;;;10.38;98.70;96150.63;5055480;28;19969;-74
2023/04/28 05:40:13;;;;;;;;;;;;;;;10.41;99.59;96144.13;5073767;28;20395;-76
2023/04/28 05:42:38;;;;;;;;;;;;;;;10.44;99.81;96144.50;5073537;28;19937;-76
2023/04/28 05:45:05;;;;;;;;;;;;;;;10.43;100.00;96153.34;5073793;28;19992;-76
2023/04/28 05:47:31;;;;;;;;;;;;;;;10.42;100.00;96143.91;5056165;28;19968;-77
2023/04/28 05:49:57;;;;;;;;;;;;;;;10.45;100.00;96146.06;5055508;28;19994;-69
2023/04/28 05:52:23;;;;;;;;;;;;;;;10.45;100.00;96145.28;5039780;28;19941;-74
2023/04/28 05:54:49;;;;;;;;;;;;;;;10.44;100.00;96152.34;5073933;28;19944;-74
2023/04/28 05:57:14;;;;;;;;;;;;;;;10.43;100.00;96147.31;5073449;28;19970;-73
2023/04/28 06:35:12;;;;;;;;;;;;;;;10.68;100.00;96134.03;5073667;28;19943;-76
2023/04/28 06:37:38;;;;;;;;;;;;;;;10.72;100.00;96129.94;5051767;28;19977;-76
2023/04/28 06:40:04;;;;;;;;;;;;;;;10.75;100.00;96129.47;5056376;28;19950;-76
2023/04/28 06:42:30;;;;;;;;;;;;;;;10.76;100.00;96126.63;5055424;28;20419;-76
2023/04/28 06:44:56;;;;;;;;;;;;;;;10.80;100.00;96139.31;5056507;28;19945;-76
2023/04/28 06:47:22;;;;;;;;;;;;;;;10.82;100.00;96135.44;5057360;28;19954;-69
2023/04/28 06:49:49;;;;;;;;;;;;;;;10.85;100.00;96134.19;5038605;28;19950;-69
2023/04/28 06:52:15;;;;;;;;;;;;;;;10.85;100.00;96131.56;5056614;28;20378;-69
2023/04/28 06:54:41;;;;;;;;;;;;;;;10.84;100.00;96140.47;5038572;28;19944;-71
2023/04/28 06:57:07;;;;;;;;;;;;;;;10.84;100.00;96136.00;5055221;28;20384;-69
2023/04/28 06:59:33;;;;;;;;;;;;;;;10.84;100.00;96135.22;5056259;28;19962;-69
2023/04/28 07:01:59;;;;;;;;;;;;;;;10.83;100.00;96126.53;5055840;28;20299;-69
2023/04/28 07:04:24;;;;;;;;;;;;;;;10.85;100.00;96128.94;5056219;28;19941;-76
2023/04/28 07:06:51;;;;;;;;;;;;;;;10.85;100.00;96127.09;5038820;28;20020;-75
2023/04/28 07:09:16;;;;;;;;;;;;;;;10.88;100.00;96118.78;5056064;28;19940;-76
2023/04/28 07:11:43;;;;;;;;;;;;;;;10.92;100.00;96119.16;5056556;28;20027;-76
2023/04/28 07:14:08;;;;;;;;;;;;;;;10.93;100.00;96124.13;5056744;28;20287;-76
2023/04/28 07:16:34;;;;;;;;;;;;;;;10.97;100.00;96121.88;5055912;28;19945;-76
2023/04/28 07:19:01;;;;;;;;;;;;;;;11.00;100.00;96126.66;5056378;28;19989;-77
2023/04/28 07:21:27;;;;;;;;;;;;;;;11.07;100.00;96129.19;5055916;28;19953;-70
2023/04/28 07:23:55;;;;;;;;;;;;;;;11.09;100.00;96127.13;5054570;28;19945;-74
2023/04/28 07:26:22;;;;;;;;;;;;;;;11.13;100.00;96125.66;5054458;28;19949;-75
2023/04/28 07:28:47;;;;;;;;;;;;;;;11.16;100.00;96125.97;5054323;28;20422;-74
2023/04/28 07:31:13;;;;;;;;;;;;;;;11.16;100.00;96128.59;5054437;28;19938;-75
2023/04/28 07:33:40;;;;;;;;;;;;;;;11.17;100.00;96122.31;5056392;28;20067;-75
2023/04/28 07:36:06;;;;;;;;;;;;;;;11.20;100.00;96115.81;5059870;28;20012;-76
2023/04/28 07:38:35;;;;;;;;;;;;;;;11.22;100.00;96116.38;5075498;28;20041;-70
2023/04/28 07:41:04;;;;;;;;;;;;;;;11.24;100.00;96110.91;5057579;28;20350;-79
2023/04/28 07:43:30;;;;;;;;;;;;;;;11.26;100.00;96116.72;5076033;28;20308;-73
2023/04/28 07:45:56;;;;;;;;;;;;;;;11.29;100.00;96111.00;5075355;28;19948;-73
2023/04/28 07:48:22;;;;;;;;;;;;;;;11.30;100.00;96110.78;5076078;28;19953;-74
2023/04/28 07:50:48;;;;;;;;;;;;;;;11.34;100.00;96119.00;5074956;28;20403;-73
2023/04/28 07:53:14;;;;;;;;;;;;;;;11.34;100.00;96119.00;5076170;28;19993;-74
2023/04/28 07:55:43;;;;;;;;;;;;;;;11.33;100.00;96120.81;5075294;28;20017;-73
2023/04/28 07:58:09;;;;;;;;;;;;;;;11.35;100.00;96120.59;5075230;28;19945;-76
2023/04/28 08:00:35;;;;;;;;;;;;;;;11.38;100.00;96123.56;5076001;28;19946;-73
2023/04/28 08:03:01;;;;;;;;;;;;;;;11.42;100.00;96128.34;5075952;28;19943;-73
2023/04/28 08:05:27;;;;;;;;;;;;;;;11.44;100.00;96129.69;5075581;28;20036;-73
2023/04/28 08:07:53;;;;;;;;;;;;;;;11.46;100.00;96129.47;5074842;28;20393;-73
2023/04/28 08:10:19;;;;;;;;;;;;;;;11.50;100.00;96128.00;5075787;28;19938;-73
2023/04/28 08:12:46;;;;;;;;;;;;;;;11.56;100.00;96137.56;5075345;28;19934;-73
2023/04/28 08:15:12;;;;;;;;;;;;;;;11.63;100.00;96140.84;5057698;28;19950;-73
2023/04/28 08:17:38;;;;;;;;;;;;;;;11.70;100.00;96153.88;5075540;28;19945;-73
2023/04/28 08:20:05;;;;;;;;;;;;;;;11.72;100.00;96144.72;5056822;28;20386;-81
2023/04/28 08:22:31;;;;;;;;;;;;;;;11.76;100.00;96151.13;5056654;28;19944;-80
2023/04/28 08:24:57;;;;;;;;;;;;;;;11.82;100.00;96148.59;5074666;28;20384;-78
2023/04/28 08:27:24;;;;;;;;;;;;;;;11.85;100.00;96145.50;5057687;28;19959;-79
2023/04/28 08:29:50;;;;;;;;;;;;;;;11.87;100.00;96156.59;5057302;28;20315;-79
2023/04/28 08:32:16;;;;;;;;;;;;;;;11.90;100.00;96156.94;5039943;28;19942;-80
2023/04/28 08:34:42;;;;;;;;;;;;;;;11.94;100.00;96157.25;5074968;28;19960;-76
2023/04/28 08:37:08;;;;;;;;;;;;;;;11.98;100.00;96153.13;5074314;28;20429;-75
2023/04/28 08:39:34;;;;;;;;;;;;;;;12.02;100.00;96156.91;5040656;28;20386;-75
2023/04/28 08:42:03;;;;;;;;;;;;;;;12.03;100.00;96161.13;5074549;28;19944;-75
2023/04/28 08:44:37;;;;;;;;;;;;;;;12.04;100.00;96164.56;5056356;28;20325;-75
2023/04/28 08:47:08;;;;;;;;;;;;;;;12.06;100.00;96168.53;5056661;28;19947;-75
2023/04/28 08:49:36;;;;;;;;;;;;;;;12.12;100.00;96164.97;5075019;28;19938;-75
2023/04/28 08:52:01;;;;;;;;;;;;;;;12.15;100.00;96169.75;5056486;28;19938;-80
2023/04/28 08:54:29;;;;;;;;;;;;;;;12.23;100.00;96170.44;5074909;28;19989;-81
2023/04/28 08:56:56;;;;;;;;;;;;;;;12.24;100.00;96172.03;5074094;28;19948;-71
2023/04/28 08:59:22;;;;;;;;;;;;;;;12.26;100.00;96170.75;5056343;28;20308;-72
2023/04/28 09:01:48;;;;;;;;;;;;;;;12.28;100.00;96168.69;5038732;28;19953;-70
2023/04/28 09:04:16;;;;;;;;;;;;;;;12.33;100.00;96179.31;5040274;28;20391;-71
2023/04/28 09:06:41;;;;;;;;;;;;;;;12.38;100.00;96168.06;5074669;28;19938;-71
2023/04/28 09:09:20;;;;;;;;;;;;;;;12.42;100.00;96179.72;5074329;28;19964;-71
2023/04/28 09:11:49;;;;;;;;;;;;;;;12.44;100.00;96180.28;5073905;28;19950;-71
2023/04/28 09:14:15;;;;;;;;;;;;;;;12.48;100.00;96181.41;5055915;28;19947;-71
2023/04/28 09:16:41;;;;;;;;;;;;;;;12.54;100.00;96182.31;5055880;28;20414;-71
2023/04/28 09:19:07;;;;;;;;;;;;;;;12.61;100.00;96187.41;5074234;28;20299;-71
2023/04/28 09:21:47;;;;;;;;;;;;;;;12.68;100.00;96186.25;5073235;28;20253;-71
2023/04/28 09:24:24;;;;;;;;;;;;;;;12.83;100.00;96188.31;5055724;28;19960;-71
2023/04/28 09:26:50;;;;;;;;;;;;;;;12.95;100.00;96196.13;5056609;28;20303;-71
2023/04/28 09:29:16;;;;;;;;;;;;;;;13.04;100.00;96192.09;5056339;28;19958;-71
2023/04/28 09:31:43;;;;;;;;;;;;;;;13.16;100.00;96191.97;5056559;28;20340;-77
2023/04/28 09:34:09;;;;;;;;;;;;;;;13.25;100.00;96195.00;5073608;28;19947;-76
2023/04/28 09:36:35;;;;;;;;;;;;;;;13.33;100.00;96197.28;5035477;28;19990;-76
2023/04/28 09:39:01;;;;;;;;;;;;;;;13.37;100.00;96195.75;5053553;28;20008;-76
2023/04/28 09:41:40;;;;;;;;;;;;;;;13.44;100.00;96195.56;5053037;28;19995;-76
2023/04/28 09:44:23;;;;;;;;;;;;;;;13.50;100.00;96194.59;5052272;28;19951;-76
2023/04/28 09:46:49;;;;;;;;;;;;;;;13.55;100.00;96195.50;5052651;28;19936;-75
2023/04/28 09:49:14;;;;;;;;;;;;;;;13.60;100.00;96190.28;5053858;28;19950;-76
2023/04/28 09:51:40;;;;;;;;;;;;;;;13.65;100.00;96188.75;5053147;28;19941;-76
2023/04/28 09:54:06;;;;;;;;;;;;;;;13.70;100.00;96187.00;5053044;28;19944;-76
2023/04/28 09:56:33;;;;;;;;;;;;;;;13.76;100.00;96193.13;5054288;28;19938;-76
2023/04/28 09:59:00;;;;;;;;;;;;;;;13.83;100.00;96183.19;5053460;28;19937;-76
2023/04/28 10:01:27;;;;;;;;;;;;;;;13.97;100.00;96186.28;5053883;28;20401;-76
2023/04/28 10:03:53;;;;;;;;;;;;;;;14.20;100.00;96180.75;5054147;28;19940;-76
2023/04/28 10:06:19;;;;;;;;;;;;;;;14.46;100.00;96191.56;5053360;28;19937;-79
2023/04/28 10:08:47;;;;;;;;;;;;;;;14.66;100.00;96179.63;5054053;28;19960;-80
2023/04/28 10:11:15;;;;;;;;;;;;;;;14.76;100.00;96179.72;5052292;28;19946;-79
2023/04/28 10:13:42;;;;;;;;;;;;;;;14.84;100.00;96184.53;5039004;28;19945;-79
2023/04/28 10:16:09;;;;;;;;;;;;;;;14.86;100.00;96184.31;5056671;28;19942;-80
2023/04/28 10:18:36;;;;;;;;;;;;;;;14.87;100.00;96184.06;5056020;28;20416;-79
2023/04/28 10:21:03;;;;;;;;;;;;;;;14.89;100.00;96189.06;5056649;28;19943;-79
2023/04/28 10:23:38;;;;;;;;;;;;;;;14.93;100.00;96187.50;5056930;28;19939;-71
2023/04/28 10:26:09;;;;;;;;;;;;;;;14.99;100.00;96178.59;5039695;28;19952;-76
2023/04/28 10:28:35;;;;;;;;;;;;;;;15.06;100.00;96181.03;5056399;28;19965;-77
2023/04/28 10:31:30;;;;;;;;;;;;;;;15.13;100.00;96181.63;5056423;28;19999;-77
2023/04/28 10:34:16;;;;;;;;;;;;;;;15.23;100.00;96174.56;5038823;28;20402;-78
2023/04/28 10:36:46;;;;;;;;;;;;;;;15.32;100.00;96176.72;5055178;28;19983;-78
2023/04/28 10:39:12;;;;;;;;;;;;;;;15.37;100.00;96168.81;5056602;28;19957;-78
2023/04/28 10:41:37;;;;;;;;;;;;;;;15.41;100.00;96167.25;5039100;28;20045;-78
2023/04/28 10:44:33;;;;;;;;;;;;;;;15.43;100.00;96168.63;5055296;28;19994;-79
2023/04/28 10:46:59;;;;;;;;;;;;;;;15.43;100.00;96170.44;5028639;28;19946;-73
2023/04/28 10:49:45;;;;;;;;;;;;;;;15.41;100.00;96168.06;5056495;28;19953;-74
2023/04/28 10:52:31;;;;;;;;;;;;;;;15.43;100.00;96159.88;5057102;28;19957;-74
2023/04/28 10:55:15;;;;;;;;;;;;;;;15.47;100.00;96152.25;5045660;28;19945;-74
2023/04/28 10:57:41;;;;;;;;;;;;;;;15.52;100.00;96168.13;5056530;28;19940;-74
2023/04/28 11:00:26;;;;;;;;;;;;;;;15.56;100.00;96167.38;5056775;28;20320;-74
2023/04/28 11:02:53;;;;;;;;;;;;;;;15.58;99.73;96167.91;5038418;28;20316;-78
2023/04/28 11:05:19;;;;;;;;;;;;;;;15.61;100.00;96167.38;5056763;28;19946;-74
2023/04/28 11:08:03;;;;;;;;;;;;;;;15.67;100.00;96162.13;5056246;28;19961;-76
2023/04/28 11:10:48;;;;;;;;;;;;;;;15.70;99.81;96145.75;5056094;28;19940;-75
2023/04/28 11:13:26;;;;;;;;;;;;;;;15.70;100.00;96156.31;5055988;28;19943;-75
2023/04/28 11:16:01;;;;;;;;;;;;;;;15.68;98.95;96158.44;5055943;28;19944;-74
2023/04/28 11:18:27;;;;;;;;;;;;;;;15.67;98.63;96160.28;5055882;28;20410;-75
2023/04/28 11:20:56;;;;;;;;;;;;;;;15.74;98.39;96157.44;5056201;28;19987;-83
2023/04/28 11:23:27;;;;;;;;;;;;;;;15.80;96.19;96146.63;5054687;28;20315;-82
2023/04/28 11:25:53;;;;;;;;;;;;;;;15.90;97.68;96148.50;5053925;28;20298;-82
2023/04/28 11:28:19;;;;;;;;;;;;;;;16.02;97.62;96148.28;5055714;28;20440;-82
2023/04/28 11:30:45;;;;;;;;;;;;;;;16.14;97.55;96156.00;5037834;28;19945;-83
2023/04/28 11:33:12;;;;;;;;;;;;;;;16.18;95.50;96147.28;5038974;28;19948;-82
2023/04/28 11:35:41;;;;;;;;;;;;;;;16.20;95.46;96153.09;5055470;28;19944;-81
2023/04/28 11:38:07;;;;;;;;;;;;;;;16.29;95.43;96142.78;5076433;28;20285;-71
2023/04/28 11:40:33;;;;;;;;;;;;;;;16.39;94.49;96132.22;5075510;28;19951;-71
2023/04/28 11:43:00;;;;;;;;;;;;;;;16.49;93.31;96128.81;5057694;28;19943;-71
2023/04/28 11:45:26;;;;;;;;;;;;;;;16.54;91.98;96123.50;5057667;28;19936;-72
2023/04/28 11:47:52;;;;;;;;;;;;;;;16.55;93.01;96134.91;5057401;28;19950;-71
2023/04/28 11:50:34;;;;;;;;;;;;;;;16.55;91.57;96119.03;5058249;28;20019;-71
2023/04/28 11:53:00;;;;;;;;;;;;;;;16.48;91.08;96129.06;5075754;28;19944;-71
2023/04/28 11:55:27;;;;;;;;;;;;;;;16.42;91.16;96133.56;5057426;28;19950;-72
2023/04/28 11:58:12;;;;;;;;;;;;;;;16.43;91.96;96135.94;5040958;28;19945;-75
2023/04/28 12:00:37;;;;;;;;;;;;;;;16.52;92.12;96138.06;5058201;28;19961;-73
2023/04/28 12:03:07;;;;;;;;;;;;;;;16.62;91.69;96130.94;5057240;28;19938;-73
2023/04/28 12:05:34;;;;;;;;;;;;;;;16.71;88.97;96117.97;5075801;28;19950;-73
2023/04/28 12:08:00;;;;;;;;;;;;;;;16.73;87.47;96113.19;5075407;28;20433;-73
2023/04/28 12:10:26;;;;;;;;;;;;;;;16.78;85.98;96101.84;5041261;28;19948;-74
2023/04/28 12:12:52;;;;;;;;;;;;;;;17.02;87.40;96113.47;5075660;28;20393;-73
2023/04/28 12:15:18;;;;;;;;;;;;;;;17.19;86.62;96118.47;5057009;28;19942;-73
2023/04/28 12:17:45;;;;;;;;;;;;;;;17.23;83.72;96094.91;5041230;28;20310;-73
2023/04/28 12:20:31;;;;;;;;;;;;;;;17.21;83.90;96102.31;5040192;28;20327;-73
2023/04/28 12:22:56;;;;;;;;;;;;;;;17.18;84.69;96108.19;5056840;28;19956;-73
2023/04/28 12:25:22;;;;;;;;;;;;;;;17.20;83.29;96090.94;5075214;28;19997;-73
2023/04/28 12:28:00;;;;;;;;;;;;;;;17.28;83.93;96102.03;5074475;28;19945;-74
2023/04/28 12:30:27;;;;;;;;;;;;;;;17.37;82.73;96092.50;5056690;28;19938;-74
2023/04/28 12:32:54;;;;;;;;;;;;;;;17.41;81.02;96081.06;5074766;28;19945;-72
2023/04/28 12:35:24;;;;;;;;;;;;;;;17.42;82.20;96092.47;5039641;28;19942;-79
2023/04/28 12:37:51;;;;;;;;;;;;;;;17.39;80.85;96082.41;5073676;28;19967;-70
2023/04/28 12:40:17;;;;;;;;;;;;;;;17.36;83.18;96096.97;5039905;28;19960;-71
2023/04/28 12:42:43;;;;;;;;;;;;;;;17.36;83.02;96096.19;5057503;28;19946;-70
2023/04/28 12:45:09;;;;;;;;;;;;;;;17.32;82.11;96097.78;5074211;28;20036;-71
2023/04/28 12:47:35;;;;;;;;;;;;;;;17.30;83.58;96110.53;5057233;28;20047;-70
2023/04/28 12:50:01;;;;;;;;;;;;;;;17.23;83.28;96103.63;5039657;28;20424;-70
2023/04/28 12:52:27;;;;;;;;;;;;;;;17.17;83.78;96103.94;5074119;28;19993;-76
2023/04/28 12:54:53;;;;;;;;;;;;;;;17.05;83.16;96109.53;5074067;28;19937;-79
2023/04/28 12:57:19;;;;;;;;;;;;;;;16.98;84.02;96109.78;5074351;28;19935;-79
2023/04/28 12:59:46;;;;;;;;;;;;;;;16.95;84.12;96114.81;5074043;28;19941;-79
2023/04/28 13:02:13;;;;;;;;;;;;;;;16.97;86.01;96123.31;5074129;28;19942;-79
2023/04/28 13:04:41;;;;;;;;;;;;;;;17.00;86.04;96120.09;5073951;28;19943;-79
2023/04/28 13:07:07;;;;;;;;;;;;;;;17.01;86.50;96127.81;5073910;28;19938;-80
2023/04/28 13:09:34;;;;;;;;;;;;;;;17.02;86.94;96123.28;5074652;28;20335;-75
2023/04/28 13:12:01;;;;;;;;;;;;;;;17.03;86.39;96119.59;5073807;28;19952;-71
2023/04/28 13:14:27;;;;;;;;;;;;;;;17.02;85.41;96123.28;5073841;28;19945;-71
2023/04/28 13:16:53;;;;;;;;;;;;;;;16.94;84.36;96108.72;5039975;28;19943;-71
2023/04/28 13:19:19;;;;;;;;;;;;;;;16.84;85.04;96117.47;5057008;28;20454;-71
2023/04/28 13:21:46;;;;;;;;;;;;;;;16.75;86.22;96126.97;5056494;28;20416;-70